createdAt,value
2019-05-14T00:01:45.051Z,100904.03
2019-05-14T00:04:18.317Z,100903.20
2019-05-14T00:06:52.148Z,100900.59
2019-05-14T00:09:25.854Z,100891.22
2019-05-14T00:12:02.676Z,100891.00
2019-05-14T00:14:39.564Z,100895.28
2019-05-14T00:17:11.329Z,100896.12
2019-05-14T00:19:45.004Z,100888.36
2019-05-14T00:22:18.702Z,100882.73
2019-05-14T00:24:52.178Z,100877.86
2019-05-14T00:27:25.629Z,100878.14
2019-05-14T00:29:59.467Z,100872.41
2019-05-14T00:32:32.808Z,100879.23
2019-05-14T00:35:05.659Z,100881.16
2019-05-14T00:37:41.269Z,100880.02
2019-05-14T00:40:14.088Z,100878.27
2019-05-14T00:42:46.513Z,100871.17
2019-05-14T00:45:21.846Z,100870.98
2019-05-14T00:47:55.505Z,100873.98
2019-05-14T00:50:31.506Z,100872.52
2019-05-14T00:53:04.349Z,100877.67
2019-05-14T00:55:37.247Z,100868.78
2019-05-14T00:58:11.491Z,100873.41
2019-05-14T01:00:45.670Z,100866.25
2019-05-14T01:03:21.675Z,100867.63
2019-05-14T01:05:54.950Z,100859.37
2019-05-14T01:08:28.653Z,100859.05
2019-05-14T01:11:02.971Z,100862.80
2019-05-14T01:13:36.806Z,100858.91
2019-05-14T01:16:11.831Z,100863.91
2019-05-14T01:18:45.080Z,100858.81
2019-05-14T01:21:18.516Z,100854.85
2019-05-14T01:23:51.826Z,100848.25
2019-05-14T01:26:25.063Z,100838.06
2019-05-14T01:28:58.220Z,100837.00
2019-05-14T01:31:31.650Z,100838.02
2019-05-14T01:34:04.962Z,100830.95
2019-05-14T01:36:38.235Z,100834.50
2019-05-14T01:39:12.038Z,100832.91
2019-05-14T01:41:45.358Z,100838.71
2019-05-14T01:44:18.667Z,100832.11
2019-05-14T01:46:52.168Z,100834.47
2019-05-14T01:49:25.976Z,100833.52
2019-05-14T01:52:01.606Z,100831.89
2019-05-14T01:54:34.685Z,100829.89
2019-05-14T01:57:11.295Z,100830.78
2019-05-14T01:59:44.274Z,100826.34
2019-05-14T02:02:18.283Z,100820.43
2019-05-14T02:04:52.485Z,100820.00
2019-05-14T02:07:26.585Z,100826.57
2019-05-14T02:10:01.131Z,100831.70
2019-05-14T02:12:34.767Z,100839.03
2019-05-14T02:15:08.541Z,100842.00
2019-05-14T02:17:42.384Z,100842.95
2019-05-14T02:20:16.788Z,100839.67
2019-05-14T02:22:52.483Z,100841.46
2019-05-14T02:25:26.949Z,100841.19
2019-05-14T02:28:01.402Z,100841.52
2019-05-14T02:30:48.227Z,100839.52
2019-05-14T02:33:11.627Z,100840.95
2019-05-14T02:35:44.937Z,100842.03
2019-05-14T02:38:19.547Z,100836.87
2019-05-14T02:40:53.555Z,100840.13
2019-05-14T02:43:29.312Z,100836.70
2019-05-14T02:46:11.949Z,100835.08
2019-05-14T02:48:40.210Z,100834.58
2019-05-14T02:51:13.839Z,100836.73
2019-05-14T02:53:49.729Z,100834.85
2019-05-14T02:56:22.210Z,100831.78
2019-05-14T02:58:55.890Z,100831.20
2019-05-14T03:01:30.173Z,100832.98
2019-05-14T03:04:03.042Z,100833.56
2019-05-14T03:06:41.501Z,100829.79
2019-05-14T03:09:15.887Z,100823.15
2019-05-14T03:11:49.584Z,100819.30
2019-05-14T03:14:23.270Z,100818.50
2019-05-14T03:16:59.471Z,100818.66
2019-05-14T03:19:32.958Z,100818.16
2019-05-14T03:22:09.769Z,100815.95
2019-05-14T03:24:40.883Z,100810.59
2019-05-14T03:27:14.141Z,100821.28
2019-05-14T03:29:49.972Z,100815.34
2019-05-14T03:32:23.236Z,100816.02
2019-05-14T03:35:02.939Z,100814.94
2019-05-14T03:37:33.363Z,100812.72
2019-05-14T03:40:09.214Z,100811.88
2019-05-14T03:42:43.053Z,100808.08
2019-05-14T03:45:19.282Z,100807.05
2019-05-14T03:47:51.978Z,100813.61
2019-05-14T03:50:25.706Z,100802.75
2019-05-14T03:53:00.066Z,100803.59
2019-05-14T03:55:33.725Z,100804.02
2019-05-14T03:58:09.932Z,100799.67
2019-05-14T04:01:00.309Z,100798.38
2019-05-14T04:03:34.064Z,100791.72
2019-05-14T04:06:10.059Z,100791.36
2019-05-14T04:08:45.846Z,100792.54
2019-05-14T04:11:21.273Z,100799.47
2019-05-14T04:14:00.131Z,100792.49
2019-05-14T04:16:39.914Z,100794.13
2019-05-14T04:19:15.162Z,100790.62
2019-05-14T04:21:50.598Z,100786.02
2019-05-14T04:24:29.516Z,100785.87
2019-05-14T04:27:11.509Z,100784.57
2019-05-14T04:29:42.243Z,100786.81
2019-05-14T04:32:20.021Z,100787.92
2019-05-14T04:34:52.225Z,100795.45
2019-05-14T04:37:28.782Z,100793.30
2019-05-14T04:40:01.064Z,100795.70
2019-05-14T04:42:34.330Z,100794.14
2019-05-14T04:45:11.024Z,100791.70
2019-05-14T04:47:43.282Z,100785.86
2019-05-14T04:50:19.844Z,100783.94
2019-05-14T04:52:51.362Z,100792.26
2019-05-14T04:55:25.650Z,100797.97
2019-05-14T04:57:59.451Z,100791.02
2019-05-14T05:00:33.291Z,100789.39
2019-05-14T05:03:11.626Z,100792.13
2019-05-14T05:05:42.824Z,100787.70
2019-05-14T05:08:19.693Z,100791.19
2019-05-14T05:10:51.688Z,100788.66
2019-05-14T05:13:24.735Z,100787.31
2019-05-14T05:15:59.328Z,100790.80
2019-05-14T05:18:33.670Z,100792.22
2019-05-14T05:21:08.772Z,100795.25
2019-05-14T05:23:41.335Z,100793.84
2019-05-14T05:26:14.447Z,100787.62
2019-05-14T05:29:00.062Z,100786.91
2019-05-14T05:31:22.962Z,100787.80
2019-05-14T05:33:58.194Z,100783.03
2019-05-14T05:36:32.015Z,100790.21
2019-05-14T05:39:08.604Z,100785.48
2019-05-14T05:41:42.480Z,100781.27
2019-05-14T05:44:18.617Z,100778.41
2019-05-14T05:46:51.670Z,100771.54
2019-05-14T05:49:25.710Z,100769.77
2019-05-14T05:51:59.438Z,100771.89
2019-05-14T05:54:32.929Z,100771.75
2019-05-14T05:57:09.030Z,100767.53
2019-05-14T05:59:41.744Z,100766.23
2019-05-14T06:02:14.446Z,100761.03
2019-05-14T06:04:48.247Z,100760.38
2019-05-14T06:07:21.941Z,100757.58
2019-05-14T06:09:55.221Z,100754.23
2019-05-14T06:12:29.723Z,100759.73
2019-05-14T06:15:04.065Z,100756.79
2019-05-14T06:17:39.187Z,100755.70
2019-05-14T06:20:12.187Z,100749.75
2019-05-14T06:22:45.997Z,100750.34
2019-05-14T06:25:21.021Z,100748.25
2019-05-14T06:27:54.433Z,100743.38
2019-05-14T06:30:44.283Z,100730.27
2019-05-14T06:33:19.617Z,100731.83
2019-05-14T06:35:53.597Z,100735.19
2019-05-14T06:38:29.408Z,100739.66
2019-05-14T06:41:02.401Z,100744.52
2019-05-14T06:43:39.005Z,100743.78
2019-05-14T06:46:11.967Z,100740.11
2019-05-14T06:48:45.266Z,100749.54
2019-05-14T06:51:19.995Z,100743.69
2019-05-14T06:53:53.113Z,100739.90
2019-05-14T06:56:28.243Z,100739.68
2019-05-14T06:59:02.150Z,100742.03
2019-05-14T07:01:38.473Z,100732.05
2019-05-14T07:04:12.503Z,100727.64
2019-05-14T07:06:48.448Z,100728.20
2019-05-14T07:09:21.233Z,100725.50
2019-05-14T07:11:54.835Z,100716.30
2019-05-14T07:14:28.442Z,100714.73
2019-05-14T07:17:02.765Z,100717.29
2019-05-14T07:19:38.279Z,100716.31
2019-05-14T07:22:11.937Z,100711.91
2019-05-14T07:24:45.646Z,100708.55
2019-05-14T07:27:19.344Z,100710.47
2019-05-14T07:29:52.591Z,100710.94
2019-05-14T07:32:28.728Z,100718.08
2019-05-14T07:35:02.029Z,100716.70
2019-05-14T07:37:35.968Z,100713.92
2019-05-14T07:40:09.487Z,100709.80
2019-05-14T07:42:43.394Z,100707.50
2019-05-14T07:45:18.485Z,100705.63
2019-05-14T07:47:51.656Z,100704.42
2019-05-14T07:50:25.164Z,100702.38
2019-05-14T07:52:58.731Z,100704.38
2019-05-14T07:55:31.542Z,100705.52
2019-05-14T07:58:04.372Z,100709.16
2019-05-14T08:00:39.978Z,100705.84
2019-05-14T08:03:12.170Z,100699.19
2019-05-14T08:05:45.168Z,100698.98
2019-05-14T08:08:18.778Z,100694.06
2019-05-14T08:10:51.961Z,100690.31
2019-05-14T08:13:24.329Z,100697.31
2019-05-14T08:15:58.344Z,100695.95
2019-05-14T08:18:31.514Z,100692.30
2019-05-14T08:21:04.876Z,100696.34
2019-05-14T08:23:39.186Z,100691.05
2019-05-14T08:26:12.168Z,100688.50
2019-05-14T08:28:45.683Z,100685.77
2019-05-14T08:31:18.626Z,100690.87
2019-05-14T08:33:51.999Z,100686.62
2019-05-14T08:36:24.663Z,100680.26
2019-05-14T08:38:58.142Z,100674.92
2019-05-14T08:41:31.369Z,100663.92
2019-05-14T08:44:04.557Z,100660.95
2019-05-14T08:46:38.903Z,100654.03
2019-05-14T08:49:13.165Z,100651.54
2019-05-14T08:51:49.198Z,100647.39
2019-05-14T08:54:21.884Z,100651.08
2019-05-14T08:56:54.524Z,100652.62
2019-05-14T08:59:28.658Z,100656.00
2019-05-14T09:02:06.250Z,100649.72
2019-05-14T09:04:36.112Z,100652.92
2019-05-14T09:07:09.666Z,100643.70
2019-05-14T09:09:42.233Z,100656.84
2019-05-14T09:12:15.335Z,100649.65
2019-05-14T09:14:48.709Z,100651.09
2019-05-14T09:17:21.043Z,100648.30
2019-05-14T09:20:01.751Z,100650.28
2019-05-14T09:22:29.158Z,100648.02
2019-05-14T09:25:02.142Z,100647.61
2019-05-14T09:27:35.117Z,100644.99
2019-05-14T09:30:09.626Z,100640.02
2019-05-14T09:32:42.032Z,100630.02
2019-05-14T09:35:14.307Z,100631.70
2019-05-14T09:37:50.922Z,100627.47
2019-05-14T09:40:22.242Z,100622.08
2019-05-14T09:42:58.472Z,100614.94
2019-05-14T09:45:29.682Z,100610.30
2019-05-14T09:48:03.080Z,100612.58
2019-05-14T09:50:38.139Z,100606.53
2019-05-14T09:53:10.185Z,100610.52
2019-05-14T09:55:43.236Z,100599.46
2019-05-14T09:58:19.916Z,100602.27
2019-05-14T10:00:52.068Z,100599.86
2019-05-14T10:03:26.126Z,100604.98
2019-05-14T10:05:59.794Z,100598.00
2019-05-14T10:08:33.528Z,100604.75
2019-05-14T10:11:06.528Z,100593.94
2019-05-14T10:13:40.148Z,100594.96
2019-05-14T10:16:14.130Z,100588.02
2019-05-14T10:18:48.682Z,100598.80
2019-05-14T10:21:23.195Z,100592.78
2019-05-14T10:23:58.424Z,100586.82
2019-05-14T10:26:32.045Z,100588.08
2019-05-14T10:29:05.709Z,100587.64
2019-05-14T10:31:39.903Z,100584.31
2019-05-14T10:34:12.621Z,100587.17
2019-05-14T10:36:45.260Z,100585.92
2019-05-14T10:39:19.275Z,100583.83
2019-05-14T10:41:52.195Z,100592.81
2019-05-14T10:44:25.218Z,100587.45
2019-05-14T10:46:58.858Z,100585.25
2019-05-14T10:49:32.042Z,100580.81
2019-05-14T10:52:05.366Z,100582.56
2019-05-14T10:54:38.924Z,100587.19
2019-05-14T10:57:13.201Z,100582.14
2019-05-14T10:59:45.689Z,100578.80
2019-05-14T11:02:18.760Z,100574.00
2019-05-14T11:04:52.817Z,100573.39
2019-05-14T11:07:26.414Z,100571.61
2019-05-14T11:09:59.696Z,100577.76
2019-05-14T11:12:33.300Z,100579.97
2019-05-14T11:15:07.411Z,100576.77
2019-05-14T11:17:40.880Z,100585.02
2019-05-14T11:20:14.537Z,100580.14
2019-05-14T11:22:48.996Z,100578.61
2019-05-14T11:25:23.602Z,100579.44
2019-05-14T11:27:58.660Z,100579.09
2019-05-14T11:30:31.735Z,100568.76
2019-05-14T11:33:05.581Z,100575.53
2019-05-14T11:35:39.496Z,100578.04
2019-05-14T11:38:28.455Z,100575.67
2019-05-14T11:40:49.286Z,100575.64
2019-05-14T11:43:20.860Z,100571.20
2019-05-14T11:45:53.936Z,100565.30
2019-05-14T11:48:26.901Z,100558.22
2019-05-14T11:50:59.733Z,100553.22
2019-05-14T11:53:32.575Z,100544.63
2019-05-14T11:56:08.713Z,100545.73
2019-05-14T11:58:40.526Z,100550.98
2019-05-14T12:01:13.824Z,100549.46
2019-05-14T12:03:46.733Z,100544.19
2019-05-14T12:06:19.297Z,100537.38
2019-05-14T12:08:52.010Z,100536.14
2019-05-14T12:11:24.735Z,100525.14
2019-05-14T12:13:59.926Z,100533.85
2019-05-14T12:16:32.088Z,100538.56
2019-05-14T12:19:05.357Z,100542.73
2019-05-14T12:21:39.707Z,100534.08
2019-05-14T12:24:13.956Z,100538.25
2019-05-14T12:26:49.005Z,100536.58
2019-05-14T12:29:21.557Z,100531.45
2019-05-14T12:31:58.492Z,100530.29
2019-05-14T12:34:30.606Z,100527.45
2019-05-14T12:37:03.717Z,100523.29
2019-05-14T12:39:37.160Z,100525.64
2019-05-14T12:42:10.966Z,100518.58
2019-05-14T12:44:45.439Z,100515.23
2019-05-14T12:47:18.771Z,100520.77
2019-05-14T12:49:51.943Z,100508.59
2019-05-14T12:52:26.266Z,100512.64
2019-05-14T12:54:59.764Z,100509.26
2019-05-14T12:57:32.601Z,100511.94
2019-05-14T13:00:08.825Z,100510.36
2019-05-14T13:02:41.066Z,100513.84
2019-05-14T13:05:14.107Z,100512.93
2019-05-14T13:07:50.812Z,100513.86
2019-05-14T13:10:22.350Z,100512.65
2019-05-14T13:12:55.741Z,100511.77
2019-05-14T13:15:29.751Z,100517.91
2019-05-14T13:18:03.539Z,100511.14
2019-05-14T13:20:38.663Z,100505.73
2019-05-14T13:23:11.355Z,100499.83
2019-05-14T13:25:44.226Z,100504.61
2019-05-14T13:28:19.313Z,100500.40
2019-05-14T13:30:51.420Z,100498.22
2019-05-14T13:33:25.442Z,100495.97
2019-05-14T13:35:59.484Z,100501.08
2019-05-14T13:38:32.192Z,100502.50
2019-05-14T13:41:04.157Z,100504.48
2019-05-14T13:43:39.105Z,100504.26
2019-05-14T13:46:14.933Z,100500.69
2019-05-14T13:48:49.604Z,100505.20
2019-05-14T13:51:21.011Z,100505.04
2019-05-14T13:53:54.419Z,100501.23
2019-05-14T13:56:28.334Z,100500.02
2019-05-14T13:59:01.370Z,100501.59
2019-05-14T14:01:33.628Z,100494.16
2019-05-14T14:04:12.572Z,100492.16
2019-05-14T14:06:41.879Z,100494.59
2019-05-14T14:09:15.679Z,100487.60
2019-05-14T14:11:48.454Z,100488.54
2019-05-14T14:14:21.686Z,100489.38
2019-05-14T14:16:54.575Z,100490.34
2019-05-14T14:19:28.215Z,100493.30
2019-05-14T14:22:01.263Z,100483.42
2019-05-14T14:24:34.205Z,100480.71
2019-05-14T14:27:08.948Z,100482.78
2019-05-14T14:29:41.498Z,100478.59
2019-05-14T14:32:14.351Z,100481.56
2019-05-14T14:34:46.987Z,100476.23
2019-05-14T14:37:19.915Z,100476.86
2019-05-14T14:39:53.024Z,100474.56
2019-05-14T14:42:25.674Z,100471.86
2019-05-14T14:44:58.928Z,100471.31
2019-05-14T14:47:35.321Z,100470.81
2019-05-14T14:50:08.367Z,100467.80
2019-05-14T14:52:41.785Z,100468.80
2019-05-14T14:55:14.314Z,100465.28
2019-05-14T14:57:53.619Z,100469.35
2019-05-14T15:00:21.896Z,100469.92
2019-05-14T15:02:54.421Z,100472.77
2019-05-14T15:05:29.599Z,100477.48
2019-05-14T15:08:02.235Z,100470.70
2019-05-14T15:10:35.724Z,100479.55
2019-05-14T15:13:09.248Z,100478.69
2019-05-14T15:15:43.206Z,100474.06
2019-05-14T15:18:18.596Z,100472.73
2019-05-14T15:20:51.948Z,100468.78
2019-05-14T15:23:25.278Z,100469.83
2019-05-14T15:25:59.052Z,100463.20
2019-05-14T15:28:32.622Z,100461.83
2019-05-14T15:31:08.806Z,100456.71
2019-05-14T15:33:41.805Z,100456.11
2019-05-14T15:36:15.511Z,100456.88
2019-05-14T15:38:49.340Z,100457.08
2019-05-14T15:41:21.858Z,100448.98
2019-05-14T15:43:55.111Z,100449.48
2019-05-14T15:46:28.718Z,100449.95
2019-05-14T15:49:02.418Z,100442.99
2019-05-14T15:51:35.682Z,100445.70
2019-05-14T15:54:34.459Z,100443.36
2019-05-14T15:56:44.420Z,100438.17
2019-05-14T15:59:19.358Z,100441.29
2019-05-14T16:01:52.814Z,100438.61
2019-05-14T16:04:28.711Z,100438.95
2019-05-14T16:07:03.053Z,100439.34
2019-05-14T16:09:39.775Z,100433.47
2019-05-14T16:12:12.616Z,100438.76
2019-05-14T16:14:48.745Z,100438.83
2019-05-14T16:17:25.294Z,100440.70
2019-05-14T16:19:55.471Z,100436.30
2019-05-14T16:22:29.421Z,100438.19
2019-05-14T16:25:03.049Z,100435.64
2019-05-14T16:27:35.614Z,100433.97
2019-05-14T16:30:09.924Z,100431.23
2019-05-14T16:32:43.268Z,100433.67
2019-05-14T16:35:21.339Z,100436.31
2019-05-14T16:37:53.121Z,100424.94
2019-05-14T16:40:28.834Z,100428.05
2019-05-14T16:43:02.354Z,100423.77
2019-05-14T16:45:39.413Z,100419.45
2019-05-14T16:48:13.414Z,100426.31
2019-05-14T16:50:48.940Z,100428.13
2019-05-14T16:53:23.020Z,100423.04
2019-05-14T16:55:57.455Z,100420.33
2019-05-14T16:58:30.900Z,100421.50
2019-05-14T17:01:04.313Z,100421.86
2019-05-14T17:03:39.686Z,100423.09
2019-05-14T17:06:13.067Z,100422.94
2019-05-14T17:08:48.945Z,100419.42
2019-05-14T17:11:24.197Z,100419.66
2019-05-14T17:13:58.174Z,100416.81
2019-05-14T17:16:30.931Z,100423.56
2019-05-14T17:19:04.797Z,100417.94
2019-05-14T17:21:39.035Z,100423.53
2019-05-14T17:24:12.233Z,100420.18
2019-05-14T17:26:45.622Z,100424.53
2019-05-14T17:29:19.486Z,100424.56
2019-05-14T17:31:52.766Z,100421.88
2019-05-14T17:34:29.135Z,100419.61
2019-05-14T17:37:02.026Z,100415.38
2019-05-14T17:39:38.530Z,100412.17
2019-05-14T17:42:15.589Z,100416.87
2019-05-14T17:44:49.460Z,100414.14
2019-05-14T17:47:23.619Z,100415.42
2019-05-14T17:49:56.413Z,100414.89
2019-05-14T17:52:30.118Z,100417.67
2019-05-14T17:55:03.173Z,100415.49
2019-05-14T17:57:37.521Z,100411.55
2019-05-14T18:00:12.066Z,100410.73
2019-05-14T18:02:48.572Z,100409.84
2019-05-14T18:05:21.436Z,100405.32
2019-05-14T18:07:54.840Z,100403.38
2019-05-14T18:10:28.510Z,100403.55
2019-05-14T18:13:02.300Z,100407.85
2019-05-14T18:15:35.724Z,100404.23
2019-05-14T18:18:09.042Z,100403.56
2019-05-14T18:20:42.212Z,100400.05
2019-05-14T18:23:15.449Z,100404.03
2019-05-14T18:26:04.011Z,100405.86
2019-05-14T18:28:22.129Z,100400.77
2019-05-14T18:30:58.578Z,100402.71
2019-05-14T18:33:31.481Z,100401.48
2019-05-14T18:36:04.269Z,100403.99
2019-05-14T18:38:39.030Z,100403.66
2019-05-14T18:41:12.370Z,100400.41
2019-05-14T18:43:45.787Z,100401.48
2019-05-14T18:46:19.252Z,100404.76
2019-05-14T18:48:52.663Z,100401.75
2019-05-14T18:51:28.637Z,100401.27
2019-05-14T18:54:01.137Z,100399.59
2019-05-14T18:56:34.069Z,100398.59
2019-05-14T18:59:08.919Z,100399.70
2019-05-14T19:01:41.077Z,100393.14
2019-05-14T19:04:13.088Z,100398.42
2019-05-14T19:06:48.285Z,100394.38
2019-05-14T19:09:21.994Z,100397.72
2019-05-14T19:11:55.372Z,100395.31
2019-05-14T19:14:29.356Z,100390.86
2019-05-14T19:17:02.134Z,100389.66
2019-05-14T19:19:35.482Z,100386.91
2019-05-14T19:22:09.814Z,100388.15
2019-05-14T19:24:42.312Z,100381.20
2019-05-14T19:27:14.797Z,100386.04
2019-05-14T19:29:48.446Z,100380.53
2019-05-14T19:32:21.679Z,100377.98
2019-05-14T19:34:55.168Z,100377.63
2019-05-14T19:37:29.108Z,100372.25
2019-05-14T19:40:02.924Z,100369.98
2019-05-14T19:42:35.514Z,100371.41
2019-05-14T19:45:09.067Z,100367.36
2019-05-14T19:47:41.635Z,100371.87
2019-05-14T19:50:14.602Z,100365.48
2019-05-14T19:52:48.675Z,100364.80
2019-05-14T19:55:22.048Z,100365.92
2019-05-14T19:57:54.129Z,100366.11
2019-05-14T20:00:32.245Z,100361.70
2019-05-14T20:03:06.189Z,100360.33
2019-05-14T20:05:39.676Z,100357.59
2019-05-14T20:08:13.463Z,100357.91
2019-05-14T20:10:49.049Z,100354.58
2019-05-14T20:13:23.334Z,100361.81
2019-05-14T20:15:59.099Z,100359.20
2019-05-14T20:18:31.994Z,100354.27
2019-05-14T20:21:05.931Z,100356.48
2019-05-14T20:23:39.274Z,100355.22
2019-05-14T20:26:13.239Z,100352.20
2019-05-14T20:28:48.354Z,100356.31
2019-05-14T20:31:22.050Z,100354.09
2019-05-14T20:33:59.788Z,100355.59
2019-05-14T20:36:33.634Z,100354.16
2019-05-14T20:39:08.685Z,100352.66
2019-05-14T20:41:42.438Z,100350.92
2019-05-14T20:44:18.726Z,100356.94
2019-05-14T20:46:52.002Z,100348.34
2019-05-14T20:49:28.286Z,100350.05
2019-05-14T20:52:02.095Z,100345.42
2019-05-14T20:54:35.890Z,100345.09
2019-05-14T20:57:22.946Z,100340.45
2019-05-14T20:59:44.134Z,100336.91
2019-05-14T21:02:18.556Z,100332.75
2019-05-14T21:04:54.242Z,100328.34
2019-05-14T21:07:28.910Z,100328.30
2019-05-14T21:10:02.158Z,100330.91
2019-05-14T21:12:35.076Z,100330.25
2019-05-14T21:15:09.000Z,100327.34
2019-05-14T21:17:42.821Z,100325.08
2019-05-14T21:20:18.491Z,100322.17
2019-05-14T21:22:52.218Z,100319.40
2019-05-14T21:25:29.303Z,100313.44
2019-05-14T21:28:01.546Z,100310.84
2019-05-14T21:30:38.861Z,100311.99
2019-05-14T21:33:12.857Z,100313.78
2019-05-14T21:35:48.359Z,100306.07
2019-05-14T21:38:28.630Z,100302.84
2019-05-14T21:41:02.489Z,100302.73
2019-05-14T21:43:38.397Z,100298.89
2019-05-14T21:46:11.817Z,100301.44
2019-05-14T21:48:45.130Z,100293.33
2019-05-14T21:51:19.352Z,100291.71
2019-05-14T21:53:53.230Z,100287.95
2019-05-14T21:56:35.359Z,100289.16
2019-05-14T21:59:09.821Z,100289.00
2019-05-14T22:01:43.962Z,100283.72
2019-05-14T22:04:18.659Z,100285.16
2019-05-14T22:06:52.289Z,100281.09
2019-05-14T22:09:28.365Z,100282.49
2019-05-14T22:12:00.541Z,100279.08
2019-05-14T22:14:33.430Z,100274.80
2019-05-14T22:17:07.978Z,100272.91
2019-05-14T22:19:41.722Z,100270.52
2019-05-14T22:22:15.166Z,100268.12
2019-05-14T22:24:48.922Z,100268.84
2019-05-14T22:27:22.374Z,100272.69
2019-05-14T22:29:55.984Z,100264.63
2019-05-14T22:32:30.183Z,100262.78
2019-05-14T22:35:03.998Z,100258.73
2019-05-14T22:37:39.089Z,100253.50
2019-05-14T22:40:14.657Z,100255.23
2019-05-14T22:42:48.110Z,100249.88
2019-05-14T22:45:22.345Z,100247.21
2019-05-14T22:47:55.117Z,100246.01
2019-05-14T22:50:29.445Z,100242.27
2019-05-14T22:53:03.606Z,100241.00
2019-05-14T22:55:38.276Z,100244.86
2019-05-14T22:58:23.630Z,100239.34
2019-05-14T23:01:00.372Z,100243.69
2019-05-14T23:03:22.355Z,100237.34
2019-05-14T23:05:58.203Z,100231.50
2019-05-14T23:08:32.519Z,100228.56
2019-05-14T23:11:05.963Z,100231.89
2019-05-14T23:13:39.375Z,100229.45
2019-05-14T23:16:12.793Z,100227.39
2019-05-14T23:18:48.586Z,100225.05
2019-05-14T23:21:22.372Z,100220.45
2019-05-14T23:23:57.664Z,100218.39
2019-05-14T23:26:30.058Z,100212.05
2019-05-14T23:29:02.524Z,100208.98
2019-05-14T23:31:34.914Z,100212.45
2019-05-14T23:34:08.235Z,100203.27
2019-05-14T23:36:42.032Z,100198.76
2019-05-14T23:39:15.846Z,100198.86
2019-05-14T23:41:49.747Z,100197.43
2019-05-14T23:44:23.170Z,100191.85
2019-05-14T23:46:58.852Z,100194.52
2019-05-14T23:49:44.034Z,100191.69
2019-05-14T23:52:19.389Z,100187.34
2019-05-14T23:54:52.646Z,100183.81
2019-05-14T23:57:28.719Z,100183.31
